createdAt,value
2018-02-20T00:00:20.304Z,1.40
2018-02-20T00:02:48.650Z,1.40
2018-02-20T00:05:16.984Z,1.40
2018-02-20T00:07:45.387Z,1.30
2018-02-20T00:10:13.725Z,1.30
2018-02-20T00:12:42.853Z,1.30
2018-02-20T00:15:11.847Z,1.20
2018-02-20T00:17:40.200Z,1.20
2018-02-20T00:20:09.319Z,1.20
2018-02-20T00:22:37.660Z,1.10
2018-02-20T00:25:06.016Z,1.10
2018-02-20T00:27:34.351Z,1.10
2018-02-20T00:30:02.711Z,1.00
2018-02-20T00:32:31.817Z,1.00
2018-02-20T00:35:00.189Z,0.90
2018-02-20T00:37:29.265Z,0.80
2018-02-20T00:39:57.612Z,0.80
2018-02-20T00:42:27.357Z,0.80
2018-02-20T00:44:56.490Z,0.70
2018-02-20T00:47:24.803Z,0.60
2018-02-20T00:49:53.153Z,0.60
2018-02-20T00:52:21.497Z,0.50
2018-02-20T00:54:50.669Z,0.40
2018-02-20T00:57:18.992Z,0.40
2018-02-20T00:59:47.346Z,0.40
2018-02-20T01:02:16.467Z,0.40
2018-02-20T01:04:44.818Z,0.30
2018-02-20T01:07:13.941Z,0.40
2018-02-20T01:09:42.279Z,0.30
2018-02-20T01:12:10.633Z,0.30
2018-02-20T01:14:40.469Z,0.30
2018-02-20T01:17:08.865Z,0.30
2018-02-20T01:19:37.180Z,0.40
2018-02-20T01:22:05.557Z,0.30
2018-02-20T01:24:33.882Z,0.40
2018-02-20T01:27:02.997Z,0.30
2018-02-20T01:29:31.385Z,0.30
2018-02-20T01:31:59.712Z,0.40
2018-02-20T01:34:28.074Z,0.30
2018-02-20T01:36:56.404Z,0.40
2018-02-20T01:39:24.762Z,0.40
2018-02-20T01:41:53.855Z,0.40
2018-02-20T01:44:22.994Z,0.40
2018-02-20T01:46:51.360Z,0.30
2018-02-20T01:49:19.710Z,0.30
2018-02-20T01:51:48.805Z,0.30
2018-02-20T01:54:17.998Z,0.30
2018-02-20T01:56:46.318Z,0.30
2018-02-20T01:59:14.710Z,0.30
2018-02-20T02:01:43.048Z,0.30
2018-02-20T02:04:12.132Z,0.20
2018-02-20T02:06:40.544Z,0.20
2018-02-20T02:09:08.865Z,0.20
2018-02-20T02:11:37.273Z,0.30
2018-02-20T02:14:05.626Z,0.30
2018-02-20T02:16:33.980Z,0.30
2018-02-20T02:19:02.305Z,0.30
2018-02-20T02:21:30.685Z,0.30
2018-02-20T02:23:59.016Z,0.30
2018-02-20T02:26:27.352Z,0.30
2018-02-20T02:28:55.733Z,0.30
2018-02-20T02:31:24.071Z,0.30
2018-02-20T02:33:53.205Z,0.30
2018-02-20T02:36:21.549Z,0.30
2018-02-20T02:38:50.681Z,0.30
2018-02-20T02:41:19.016Z,0.30
2018-02-20T02:43:47.384Z,0.30
2018-02-20T02:46:15.716Z,0.30
2018-02-20T02:48:44.045Z,0.30
2018-02-20T02:51:13.428Z,0.30
2018-02-20T02:53:41.860Z,0.30
2018-02-20T02:56:10.266Z,0.20
2018-02-20T02:58:40.136Z,0.20
2018-02-20T03:01:09.586Z,0.20
2018-02-20T03:03:37.909Z,0.20
2018-02-20T03:06:07.066Z,0.20
2018-02-20T03:08:35.412Z,0.10
2018-02-20T03:11:03.836Z,0.20
2018-02-20T03:13:32.188Z,0.20
2018-02-20T03:16:01.624Z,0.10
2018-02-20T03:18:29.980Z,0.10
2018-02-20T03:20:58.309Z,0.00
2018-02-20T03:23:27.443Z,-0.10
2018-02-20T03:25:55.767Z,-0.10
2018-02-20T03:28:24.914Z,-0.10
2018-02-20T03:30:53.254Z,-0.20
2018-02-20T03:33:22.348Z,-0.20
2018-02-20T03:35:50.725Z,-0.20
2018-02-20T03:38:19.147Z,-0.20
2018-02-20T03:40:47.477Z,-0.20
2018-02-20T03:43:15.850Z,-0.30
2018-02-20T03:45:44.210Z,-0.30
2018-02-20T03:48:12.548Z,-0.40
2018-02-20T03:50:40.922Z,-0.40
2018-02-20T03:53:09.249Z,-0.40
2018-02-20T03:55:37.631Z,-0.40
2018-02-20T03:58:06.753Z,-0.60
2018-02-20T04:00:35.125Z,-0.60
2018-02-20T04:03:03.472Z,-0.60
2018-02-20T04:05:31.809Z,-0.60
2018-02-20T04:08:00.260Z,-0.50
2018-02-20T04:10:28.597Z,-0.60
2018-02-20T04:12:56.941Z,-0.50
2018-02-20T04:15:25.304Z,-0.50
2018-02-20T04:17:53.681Z,-0.50
2018-02-20T04:20:22.067Z,-0.50
2018-02-20T04:22:50.452Z,-0.50
2018-02-20T04:25:18.795Z,-0.50
2018-02-20T04:27:47.909Z,-0.40
2018-02-20T04:30:16.261Z,-0.50
2018-02-20T04:32:44.661Z,-0.40
2018-02-20T04:35:12.988Z,-0.40
2018-02-20T04:37:41.393Z,-0.40
2018-02-20T04:40:10.523Z,-0.40
2018-02-20T04:42:38.920Z,-0.40
2018-02-20T04:45:08.065Z,-0.40
2018-02-20T04:47:37.188Z,-0.30
2018-02-20T04:50:05.553Z,-0.40
2018-02-20T04:52:33.896Z,-0.40
2018-02-20T04:55:02.292Z,-0.30
2018-02-20T04:57:30.642Z,-0.30
2018-02-20T04:59:59.771Z,-0.40
2018-02-20T05:02:28.912Z,-0.40
2018-02-20T05:04:57.256Z,-0.40
2018-02-20T05:07:25.608Z,-0.40
2018-02-20T05:09:55.028Z,-0.40
2018-02-20T05:12:24.174Z,-0.40
2018-02-20T05:14:52.506Z,-0.40
2018-02-20T05:17:20.849Z,-0.40
2018-02-20T05:19:49.205Z,-0.40
2018-02-20T05:22:18.334Z,-0.40
2018-02-20T05:24:46.668Z,-0.40
2018-02-20T05:27:15.013Z,-0.40
2018-02-20T05:29:43.354Z,-0.40
2018-02-20T05:32:11.715Z,-0.40
2018-02-20T05:34:41.561Z,-0.30
2018-02-20T05:37:09.888Z,-0.30
2018-02-20T05:39:38.242Z,-0.30
2018-02-20T05:42:06.572Z,-0.20
2018-02-20T05:44:35.686Z,-0.20
2018-02-20T05:47:04.824Z,-0.10
2018-02-20T05:49:33.184Z,-0.20
2018-02-20T05:52:01.525Z,-0.10
2018-02-20T05:54:30.652Z,0.00
2018-02-20T05:56:59.023Z,-0.10
2018-02-20T05:59:27.349Z,0.00
2018-02-20T06:01:55.766Z,0.00
2018-02-20T06:04:24.936Z,0.00
2018-02-20T06:06:54.073Z,0.10
2018-02-20T06:09:22.482Z,0.00
2018-02-20T06:11:50.839Z,0.10
2018-02-20T06:14:19.228Z,0.10
2018-02-20T06:16:47.573Z,0.20
2018-02-20T06:19:15.958Z,0.20
2018-02-20T06:21:45.092Z,0.20
2018-02-20T06:24:13.417Z,0.10
2018-02-20T06:26:41.848Z,0.20
2018-02-20T06:29:10.213Z,0.20
2018-02-20T06:31:38.557Z,0.20
2018-02-20T06:34:06.894Z,0.10
2018-02-20T06:36:35.343Z,0.10
2018-02-20T06:39:03.683Z,0.10
2018-02-20T06:41:32.292Z,0.10
2018-02-20T06:44:00.809Z,0.10
2018-02-20T06:46:29.206Z,0.00
2018-02-20T06:48:58.345Z,0.00
2018-02-20T06:51:27.449Z,0.00
2018-02-20T06:53:55.769Z,0.00
2018-02-20T06:56:24.116Z,0.10
2018-02-20T06:58:52.452Z,0.10
2018-02-20T07:01:20.814Z,0.10
2018-02-20T07:03:49.156Z,0.10
2018-02-20T07:06:17.512Z,0.20
2018-02-20T07:08:45.836Z,0.20
2018-02-20T07:11:15.282Z,0.30
2018-02-20T07:13:44.410Z,0.30
2018-02-20T07:16:12.783Z,0.30
2018-02-20T07:18:41.156Z,0.40
2018-02-20T07:21:09.515Z,0.40
2018-02-20T07:23:37.916Z,0.50
2018-02-20T07:26:06.240Z,0.50
2018-02-20T07:28:34.603Z,0.50
2018-02-20T07:31:02.929Z,0.60
2018-02-20T07:33:31.285Z,0.60
2018-02-20T07:35:59.645Z,0.60
2018-02-20T07:38:27.985Z,0.60
2018-02-20T07:40:56.316Z,0.70
2018-02-20T07:43:25.459Z,0.70
2018-02-20T07:45:53.779Z,0.70
2018-02-20T07:48:22.894Z,0.60
2018-02-20T07:50:51.393Z,0.50
2018-02-20T07:53:19.737Z,0.60
2018-02-20T07:55:48.057Z,0.50
2018-02-20T07:58:16.465Z,0.50
2018-02-20T08:00:44.814Z,0.60
2018-02-20T08:03:13.141Z,0.70
2018-02-20T08:05:41.486Z,0.80
2018-02-20T08:08:09.844Z,1.00
2018-02-20T08:10:38.168Z,1.00
2018-02-20T08:13:06.492Z,1.00
2018-02-20T08:15:34.843Z,1.00
2018-02-20T08:18:03.228Z,1.00
2018-02-20T08:20:31.577Z,0.90
2018-02-20T08:22:59.952Z,0.90
2018-02-20T08:25:29.092Z,1.00
2018-02-20T08:27:57.414Z,0.90
2018-02-20T08:30:25.742Z,0.90
2018-02-20T08:32:54.129Z,1.00
2018-02-20T08:35:22.480Z,1.10
2018-02-20T08:37:51.568Z,1.20
2018-02-20T08:40:20.678Z,1.20
2018-02-20T08:42:49.013Z,1.20
2018-02-20T08:45:17.418Z,1.30
2018-02-20T08:47:45.732Z,1.30
2018-02-20T08:50:14.175Z,1.30
2018-02-20T08:52:43.304Z,1.40
2018-02-20T08:55:11.621Z,1.30
2018-02-20T08:57:39.964Z,1.40
2018-02-20T09:00:08.317Z,1.50
2018-02-20T09:02:36.677Z,1.60
2018-02-20T09:05:05.778Z,1.70
2018-02-20T09:07:34.134Z,1.60
2018-02-20T09:10:02.496Z,1.70
2018-02-20T09:12:30.837Z,1.80
2018-02-20T09:14:59.209Z,1.80
2018-02-20T09:17:27.576Z,1.90
2018-02-20T09:19:56.661Z,2.00
2018-02-20T09:25:00.358Z,2.10
2018-02-20T09:27:28.701Z,2.20
2018-02-20T09:29:57.030Z,2.30
2018-02-20T09:32:26.252Z,2.30
2018-02-20T09:34:54.608Z,2.20
2018-02-20T09:37:22.950Z,2.40
2018-02-20T09:39:51.285Z,2.50
2018-02-20T09:42:19.606Z,2.60
2018-02-20T09:44:47.936Z,2.70
2018-02-20T09:47:16.313Z,2.80
2018-02-20T09:49:44.693Z,2.90
2018-02-20T09:52:13.009Z,2.90
2018-02-20T09:54:41.345Z,3.00
2018-02-20T09:57:09.699Z,3.00
2018-02-20T09:59:38.063Z,3.00
2018-02-20T10:02:06.381Z,3.00
2018-02-20T10:04:34.694Z,3.10
2018-02-20T10:07:03.028Z,3.10
2018-02-20T10:09:31.377Z,3.10
2018-02-20T10:12:00.468Z,3.20
2018-02-20T10:14:28.888Z,3.10
2018-02-20T10:16:57.237Z,3.20
2018-02-20T10:19:26.322Z,3.30
2018-02-20T10:21:55.422Z,3.30
2018-02-20T10:24:24.840Z,3.40
2018-02-20T10:26:53.933Z,3.50
2018-02-20T10:29:23.049Z,3.50
2018-02-20T10:31:51.416Z,3.40
2018-02-20T10:34:19.757Z,3.40
2018-02-20T10:36:48.086Z,3.40
2018-02-20T10:39:16.528Z,3.50
2018-02-20T10:41:45.624Z,3.60
2018-02-20T10:44:14.726Z,3.60
2018-02-20T10:46:43.854Z,3.60
2018-02-20T10:49:12.183Z,3.60
2018-02-20T10:51:40.500Z,3.60
2018-02-20T10:54:08.846Z,3.70
2018-02-20T10:56:37.208Z,3.70
2018-02-20T10:59:06.340Z,3.70
2018-02-20T11:01:34.704Z,3.70
2018-02-20T11:04:03.640Z,3.80
2018-02-20T11:06:31.973Z,3.80
2018-02-20T11:09:01.096Z,3.80
2018-02-20T11:11:29.461Z,3.80
2018-02-20T11:13:57.793Z,3.90
2018-02-20T11:16:26.157Z,3.90
2018-02-20T11:18:54.569Z,3.90
2018-02-20T11:21:22.948Z,4.00
2018-02-20T11:23:51.334Z,4.00
2018-02-20T11:26:20.432Z,4.10
2018-02-20T11:28:49.517Z,4.10
2018-02-20T11:31:17.909Z,4.00
2018-02-20T11:33:46.271Z,4.10
2018-02-20T11:36:15.392Z,4.30
2018-02-20T11:38:43.741Z,4.20
2018-02-20T11:41:12.837Z,4.40
2018-02-20T11:43:41.161Z,4.40
2018-02-20T11:46:09.498Z,4.50
2018-02-20T11:48:38.666Z,4.60
2018-02-20T11:51:07.009Z,4.50
2018-02-20T11:53:35.338Z,4.60
2018-02-20T11:56:03.769Z,4.60
2018-02-20T11:58:32.132Z,4.70
2018-02-20T12:01:00.457Z,4.70
2018-02-20T12:03:28.833Z,4.70
2018-02-20T12:05:57.181Z,4.70
2018-02-20T12:08:25.506Z,4.70
2018-02-20T12:10:53.856Z,4.70
2018-02-20T12:13:22.205Z,4.70
2018-02-20T12:15:50.523Z,4.80
2018-02-20T12:18:18.921Z,4.90
2018-02-20T12:20:48.049Z,4.80
2018-02-20T12:23:16.718Z,4.80
2018-02-20T12:25:45.931Z,4.70
2018-02-20T12:28:14.312Z,4.70
2018-02-20T12:30:42.649Z,4.80
2018-02-20T12:33:11.746Z,4.80
2018-02-20T12:35:40.872Z,4.90
2018-02-20T12:38:09.222Z,4.90
2018-02-20T12:40:37.581Z,4.90
2018-02-20T12:43:06.015Z,4.80
2018-02-20T12:45:34.345Z,4.70
2018-02-20T12:48:03.449Z,4.60
2018-02-20T12:50:32.593Z,4.70
2018-02-20T12:53:00.921Z,4.60
2018-02-20T12:55:29.236Z,4.70
2018-02-20T12:57:57.619Z,4.60
2018-02-20T13:00:25.966Z,4.60
2018-02-20T13:02:54.320Z,4.60
2018-02-20T13:05:22.685Z,4.60
2018-02-20T13:07:51.906Z,4.50
2018-02-20T13:10:20.998Z,4.60
2018-02-20T13:12:49.332Z,4.60
2018-02-20T13:15:17.665Z,4.70
2018-02-20T13:17:46.785Z,4.70
2018-02-20T13:20:15.112Z,4.60
2018-02-20T13:22:43.440Z,4.70
2018-02-20T13:25:11.797Z,4.80
2018-02-20T13:27:40.148Z,4.80
2018-02-20T13:30:08.478Z,5.00
2018-02-20T13:32:36.864Z,5.20
2018-02-20T13:35:05.231Z,5.40
2018-02-20T13:37:33.540Z,5.40
2018-02-20T13:40:01.898Z,5.30
2018-02-20T13:42:30.269Z,5.30
2018-02-20T13:44:58.610Z,5.20
2018-02-20T13:47:26.985Z,5.10
2018-02-20T13:49:56.176Z,4.80
2018-02-20T13:52:24.529Z,4.70
2018-02-20T13:54:52.860Z,4.70
2018-02-20T13:57:21.177Z,4.80
2018-02-20T13:59:50.333Z,5.20
2018-02-20T14:02:18.661Z,5.20
2018-02-20T14:04:46.989Z,5.30
2018-02-20T14:07:15.350Z,5.40
2018-02-20T14:09:44.440Z,5.60
2018-02-20T14:12:13.529Z,5.70
2018-02-20T14:14:42.649Z,5.90
2018-02-20T14:17:11.005Z,5.90
2018-02-20T14:19:39.360Z,6.10
2018-02-20T14:22:07.713Z,6.10
2018-02-20T14:24:36.033Z,5.90
2018-02-20T14:27:05.118Z,5.90
2018-02-20T14:29:33.466Z,5.80
2018-02-20T14:32:01.786Z,5.80
2018-02-20T14:34:30.870Z,5.70
2018-02-20T14:36:59.982Z,5.60
2018-02-20T14:39:28.360Z,5.60
2018-02-20T14:41:56.700Z,5.50
2018-02-20T14:44:26.556Z,5.60
2018-02-20T14:46:54.913Z,5.50
2018-02-20T14:49:24.006Z,5.50
2018-02-20T14:51:53.102Z,5.60
2018-02-20T14:54:22.225Z,5.60
2018-02-20T14:56:50.548Z,5.50
2018-02-20T14:59:18.895Z,5.50
2018-02-20T15:01:47.297Z,5.30
2018-02-20T15:04:15.844Z,5.30
2018-02-20T15:06:44.201Z,5.20
2018-02-20T15:09:13.332Z,5.00
2018-02-20T15:11:41.646Z,4.90
2018-02-20T15:14:10.009Z,4.90
2018-02-20T15:16:38.357Z,4.90
2018-02-20T15:19:06.691Z,4.90
2018-02-20T15:21:35.100Z,4.90
2018-02-20T15:24:04.141Z,4.80
2018-02-20T15:26:32.487Z,4.80
2018-02-20T15:29:00.837Z,4.80
2018-02-20T15:31:29.204Z,4.80
2018-02-20T15:33:58.306Z,4.70
2018-02-20T15:36:26.819Z,4.70
2018-02-20T15:38:55.203Z,4.70
2018-02-20T15:41:23.592Z,4.60
2018-02-20T15:43:52.046Z,4.50
2018-02-20T15:46:20.422Z,4.40
2018-02-20T15:48:48.745Z,4.40
2018-02-20T15:51:17.148Z,4.40
2018-02-20T15:53:45.452Z,4.40
2018-02-20T15:56:13.782Z,4.40
2018-02-20T15:58:42.135Z,4.40
2018-02-20T16:01:10.460Z,4.30
2018-02-20T16:03:38.785Z,4.30
2018-02-20T16:06:07.519Z,4.20
2018-02-20T16:08:35.924Z,4.10
2018-02-20T16:11:05.174Z,4.00
2018-02-20T16:13:33.501Z,3.80
2018-02-20T16:16:05.886Z,3.70
2018-02-20T16:18:35.145Z,3.60
2018-02-20T16:21:03.488Z,3.50
2018-02-20T16:23:32.606Z,3.20
2018-02-20T16:26:01.721Z,3.20
2018-02-20T16:28:30.053Z,3.20
2018-02-20T16:30:58.471Z,3.10
2018-02-20T16:33:27.569Z,3.00
2018-02-20T16:35:55.952Z,3.00
2018-02-20T16:38:24.382Z,3.00
2018-02-20T16:40:52.730Z,2.90
2018-02-20T16:43:21.868Z,2.80
2018-02-20T16:45:50.571Z,2.80
2018-02-20T16:48:18.913Z,2.80
2018-02-20T16:50:47.275Z,2.70
2018-02-20T16:53:15.636Z,2.60
2018-02-20T16:55:43.973Z,2.60
2018-02-20T16:58:13.081Z,2.40
2018-02-20T17:00:42.219Z,2.30
2018-02-20T17:03:10.551Z,2.30
2018-02-20T17:05:39.684Z,2.20
2018-02-20T17:08:08.046Z,2.10
2018-02-20T17:10:36.377Z,2.10
2018-02-20T17:13:05.499Z,2.00
2018-02-20T17:15:34.625Z,2.00
2018-02-20T17:18:02.949Z,1.90
2018-02-20T17:20:31.286Z,1.90
2018-02-20T17:22:59.641Z,1.90
2018-02-20T17:25:27.981Z,1.80
2018-02-20T17:27:56.316Z,1.80
2018-02-20T17:30:24.673Z,1.80
2018-02-20T17:32:53.759Z,1.70
2018-02-20T17:35:22.097Z,1.70
2018-02-20T17:37:51.234Z,1.70
2018-02-20T17:40:19.570Z,1.70
2018-02-20T17:42:47.889Z,1.60
2018-02-20T17:45:16.575Z,1.60
2018-02-20T17:47:44.922Z,1.60
2018-02-20T17:50:14.069Z,1.60
2018-02-20T17:52:42.417Z,1.60
2018-02-20T17:55:11.520Z,1.60
2018-02-20T17:57:39.898Z,1.50
2018-02-20T18:00:08.225Z,1.60
2018-02-20T18:02:36.556Z,1.60
2018-02-20T18:05:04.938Z,1.50
2018-02-20T18:07:33.293Z,1.50
2018-02-20T18:10:01.648Z,1.50
2018-02-20T18:12:30.005Z,1.50
2018-02-20T18:14:58.318Z,1.50
2018-02-20T18:17:26.652Z,1.50
2018-02-20T18:19:55.006Z,1.50
2018-02-20T18:22:23.352Z,1.40
2018-02-20T18:24:51.750Z,1.40
2018-02-20T18:27:20.105Z,1.40
2018-02-20T18:29:48.464Z,1.40
2018-02-20T18:32:16.817Z,1.40
2018-02-20T18:34:45.181Z,1.40
2018-02-20T18:37:13.587Z,1.40
2018-02-20T18:39:41.933Z,1.30
2018-02-20T18:42:10.264Z,1.30
2018-02-20T18:44:39.388Z,1.30
2018-02-20T18:47:07.745Z,1.20
2018-02-20T18:49:36.125Z,1.20
2018-02-20T18:52:04.475Z,1.20
2018-02-20T18:54:32.843Z,1.20
2018-02-20T18:57:01.207Z,1.20
2018-02-20T18:59:30.467Z,1.20
2018-02-20T19:01:58.841Z,1.20
2018-02-20T19:04:27.941Z,1.10
2018-02-20T19:06:56.352Z,1.10
2018-02-20T19:09:24.681Z,1.10
2018-02-20T19:11:53.090Z,1.10
2018-02-20T19:14:21.469Z,1.10
2018-02-20T19:16:49.794Z,1.00
2018-02-20T19:19:18.154Z,1.00
2018-02-20T19:21:46.505Z,1.00
2018-02-20T19:24:14.845Z,1.00
2018-02-20T19:26:43.200Z,0.90
2018-02-20T19:29:11.568Z,0.90
2018-02-20T19:31:40.705Z,0.90
2018-02-20T19:34:09.803Z,0.90
2018-02-20T19:36:38.168Z,0.80
2018-02-20T19:39:06.554Z,0.80
2018-02-20T19:41:35.669Z,0.80
2018-02-20T19:44:04.061Z,0.70
2018-02-20T19:46:32.401Z,0.80
2018-02-20T19:49:01.505Z,0.80
2018-02-20T19:51:29.897Z,0.70
2018-02-20T19:53:58.217Z,0.70
2018-02-20T19:56:26.549Z,0.70
2018-02-20T19:58:54.909Z,0.70
2018-02-20T20:01:23.273Z,0.70
2018-02-20T20:03:51.642Z,0.70
2018-02-20T20:06:20.789Z,0.60
2018-02-20T20:08:49.155Z,0.50
2018-02-20T20:11:17.510Z,0.60
2018-02-20T20:13:45.918Z,0.60
2018-02-20T20:16:14.257Z,0.50
2018-02-20T20:18:42.582Z,0.50
2018-02-20T20:21:10.954Z,0.50
2018-02-20T20:23:39.310Z,0.50
2018-02-20T20:26:07.741Z,0.50
2018-02-20T20:28:36.187Z,0.50
2018-02-20T20:31:04.578Z,0.50
2018-02-20T20:33:32.907Z,0.40
2018-02-20T20:36:01.255Z,0.40
2018-02-20T20:38:29.574Z,0.40
2018-02-20T20:40:57.918Z,0.40
2018-02-20T20:43:26.292Z,0.40
2018-02-20T20:45:54.641Z,0.30
2018-02-20T20:48:23.030Z,0.30
2018-02-20T20:50:51.405Z,0.30
2018-02-20T20:53:19.753Z,0.30
2018-02-20T20:55:48.082Z,0.30
2018-02-20T20:58:16.437Z,0.20
2018-02-20T21:00:44.765Z,0.20
2018-02-20T21:03:13.896Z,0.20
2018-02-20T21:05:42.256Z,0.10
2018-02-20T21:08:10.649Z,0.10
2018-02-20T21:10:38.977Z,0.10
2018-02-20T21:13:08.091Z,0.10
2018-02-20T21:15:36.453Z,0.00
2018-02-20T21:18:05.586Z,0.00
2018-02-20T21:20:33.945Z,0.00
2018-02-20T21:23:03.054Z,0.00
2018-02-20T21:25:31.448Z,0.00
2018-02-20T21:27:59.805Z,0.00
2018-02-20T21:30:28.155Z,0.00
2018-02-20T21:32:56.566Z,-0.10
2018-02-20T21:35:24.944Z,-0.10
2018-02-20T21:37:53.302Z,-0.10
2018-02-20T21:40:21.673Z,-0.10
2018-02-20T21:42:50.145Z,-0.10
2018-02-20T21:45:19.257Z,-0.10
2018-02-20T21:47:48.426Z,-0.20
2018-02-20T21:50:16.944Z,-0.20
2018-02-20T21:52:45.333Z,-0.20
2018-02-20T21:55:13.813Z,-0.20
2018-02-20T21:57:42.201Z,-0.20
2018-02-20T22:00:10.569Z,-0.20
2018-02-20T22:02:38.988Z,-0.20
2018-02-20T22:05:07.360Z,-0.30
2018-02-20T22:07:35.742Z,-0.30
2018-02-20T22:10:04.140Z,-0.30
2018-02-20T22:12:33.285Z,-0.30
2018-02-20T22:15:01.692Z,-0.40
2018-02-20T22:17:30.105Z,-0.40
2018-02-20T22:19:59.224Z,-0.40
2018-02-20T22:22:27.589Z,-0.40
2018-02-20T22:24:55.959Z,-0.40
2018-02-20T22:27:25.092Z,-0.40
2018-02-20T22:29:53.473Z,-0.50
2018-02-20T22:32:21.853Z,-0.50
2018-02-20T22:34:50.197Z,-0.50
2018-02-20T22:37:19.317Z,-0.50
2018-02-20T22:39:47.670Z,-0.60
2018-02-20T22:42:16.057Z,-0.50
2018-02-20T22:44:44.506Z,-0.60
2018-02-20T22:47:13.637Z,-0.60
2018-02-20T22:49:42.034Z,-0.60
2018-02-20T22:52:10.378Z,-0.60
2018-02-20T22:54:39.574Z,-0.70
2018-02-20T22:57:08.695Z,-0.70
2018-02-20T22:59:37.054Z,-0.70
2018-02-20T23:02:05.449Z,-0.70
2018-02-20T23:04:33.808Z,-0.70
2018-02-20T23:07:02.174Z,-0.70
2018-02-20T23:09:30.589Z,-0.70
2018-02-20T23:11:58.954Z,-0.70
2018-02-20T23:14:27.320Z,-0.80
2018-02-20T23:16:55.705Z,-0.80
2018-02-20T23:19:24.799Z,-0.70
2018-02-20T23:21:54.022Z,-0.80
2018-02-20T23:24:22.378Z,-0.70
2018-02-20T23:26:50.720Z,-0.70
2018-02-20T23:29:19.090Z,-0.70
2018-02-20T23:31:47.429Z,-0.70
2018-02-20T23:34:15.770Z,-0.70
2018-02-20T23:36:44.913Z,-0.80
2018-02-20T23:39:13.269Z,-0.90
2018-02-20T23:41:44.673Z,-0.80
2018-02-20T23:44:13.833Z,-0.80
2018-02-20T23:46:42.165Z,-0.90
2018-02-20T23:49:10.533Z,-0.80
2018-02-20T23:51:39.672Z,-0.90
2018-02-20T23:54:08.014Z,-0.90
2018-02-20T23:56:37.132Z,-0.90
2018-02-20T23:59:05.522Z,-0.90
